createdAt,value
2018-11-01T00:02:18.595Z,17.1
2018-11-01T00:07:16.121Z,17
2018-11-01T00:12:14.118Z,17
2018-11-01T00:17:11.626Z,17
2018-11-01T00:22:09.400Z,16.9
2018-11-01T00:27:07.437Z,16.9
2018-11-01T00:32:05.463Z,16.9
2018-11-01T00:37:03.460Z,16.9
2018-11-01T00:42:01.422Z,16.8
2018-11-01T00:46:58.992Z,16.8
2018-11-01T00:51:56.710Z,16.8
2018-11-01T00:56:54.753Z,16.7
2018-11-01T01:01:52.759Z,16.7
2018-11-01T01:06:50.247Z,16.7
2018-11-01T01:11:48.286Z,16.6
2018-11-01T01:16:45.803Z,16.6
2018-11-01T01:21:43.454Z,16.6
2018-11-01T01:26:40.937Z,16.5
2018-11-01T01:31:38.590Z,16.5
2018-11-01T01:36:36.196Z,16.5
2018-11-01T01:41:33.927Z,16.4
2018-11-01T01:46:31.937Z,16.3
2018-11-01T01:51:29.388Z,16.4
2018-11-01T01:56:26.945Z,16.3
2018-11-01T02:01:24.492Z,16.3
2018-11-01T02:06:21.971Z,16.3
2018-11-01T02:11:19.620Z,16.2
2018-11-01T02:16:17.716Z,16.2
2018-11-01T02:21:15.610Z,16.2
2018-11-01T02:26:13.128Z,16.2
2018-11-01T02:31:10.900Z,16.1
2018-11-01T02:36:08.961Z,16.1
2018-11-01T02:41:06.883Z,15.9
2018-11-01T02:46:04.495Z,16
2018-11-01T02:51:02.356Z,16
2018-11-01T02:55:59.784Z,15.9
2018-11-01T03:00:57.709Z,16
2018-11-01T03:05:55.716Z,15.9
2018-11-01T03:10:52.755Z,15.9
2018-11-01T03:15:50.818Z,15.9
2018-11-01T03:20:48.643Z,15.9
2018-11-01T03:25:46.742Z,15.9
2018-11-01T03:30:44.188Z,15.8
2018-11-01T03:35:41.852Z,15.8
2018-11-01T03:40:39.855Z,15.8
2018-11-01T03:45:37.999Z,15.7
2018-11-01T03:50:36.190Z,15.7
2018-11-01T03:55:34.091Z,15.7
2018-11-01T04:00:31.645Z,15.7
2018-11-01T04:05:29.170Z,15.6
2018-11-01T04:10:26.296Z,15.6
2018-11-01T04:15:24.189Z,15.6
2018-11-01T04:20:22.562Z,15.6
2018-11-01T04:25:20.391Z,15.6
2018-11-01T04:30:18.420Z,15.4
2018-11-01T04:35:16.042Z,15.1
2018-11-01T04:40:14.015Z,15.5
2018-11-01T04:45:11.736Z,15.1
2018-11-01T04:50:09.770Z,15
2018-11-01T04:55:07.296Z,15
2018-11-01T05:00:04.601Z,15.4
2018-11-01T05:05:02.712Z,15.4
2018-11-01T05:10:00.926Z,15.4
2018-11-01T05:14:58.931Z,15.3
2018-11-01T05:19:56.929Z,15.3
2018-11-01T05:24:54.814Z,15.3
2018-11-01T05:29:52.242Z,14.9
2018-11-01T05:34:50.285Z,15.2
2018-11-01T05:39:47.709Z,14.9
2018-11-01T05:44:45.263Z,15.2
2018-11-01T05:49:43.046Z,15.2
2018-11-01T05:54:40.834Z,14.7
2018-11-01T05:59:38.730Z,14.9
2018-11-01T06:04:36.733Z,14.7
2018-11-01T06:09:34.699Z,15.1
2018-11-01T06:14:32.723Z,15.1
2018-11-01T06:19:31.309Z,15.1
2018-11-01T06:24:29.008Z,15
2018-11-01T06:29:26.957Z,15
2018-11-01T06:34:24.305Z,15
2018-11-01T06:39:21.950Z,15
2018-11-01T06:44:19.313Z,15
2018-11-01T06:49:17.624Z,15
2018-11-01T06:54:14.866Z,15
2018-11-01T06:59:13.207Z,14.9
2018-11-01T07:04:12.087Z,14.9
2018-11-01T07:09:10.108Z,14.9
2018-11-01T07:14:07.479Z,14.9
2018-11-01T07:19:04.650Z,14.5
2018-11-01T07:24:01.927Z,14.5
2018-11-01T07:29:00.036Z,14.5
2018-11-01T07:33:57.953Z,14.9
2018-11-01T07:38:56.344Z,14.9
2018-11-01T07:43:54.549Z,14.7
2018-11-01T07:48:52.517Z,14.4
2018-11-01T07:53:50.315Z,14.4
2018-11-01T07:58:48.151Z,14.4
2018-11-01T08:03:46.000Z,14.4
2018-11-01T08:08:44.294Z,14.5
2018-11-01T08:13:41.834Z,14.5
2018-11-01T08:18:39.813Z,14.5
2018-11-01T08:23:37.871Z,14.9
2018-11-01T08:28:35.979Z,14.9
2018-11-01T08:33:33.813Z,14.5
2018-11-01T08:38:31.849Z,14.8
2018-11-01T08:43:30.005Z,15
2018-11-01T08:48:28.143Z,15
2018-11-01T08:53:26.161Z,15
2018-11-01T08:58:23.892Z,14.5
2018-11-01T09:03:22.512Z,15
2018-11-01T09:08:20.799Z,15
2018-11-01T09:13:18.163Z,15.1
2018-11-01T09:18:16.586Z,15.1
2018-11-01T09:23:14.356Z,14.7
2018-11-01T09:28:12.765Z,15.2
2018-11-01T09:33:10.311Z,15.2
2018-11-01T09:38:08.419Z,14.9
2018-11-01T09:43:06.337Z,14.8
2018-11-01T09:48:04.205Z,14.9
2018-11-01T09:53:02.539Z,15.3
2018-11-01T09:58:00.427Z,15.4
2018-11-01T10:02:57.967Z,15.4
2018-11-01T10:07:56.117Z,15.4
2018-11-01T10:12:54.068Z,15.5
2018-11-01T10:17:52.533Z,15.5
2018-11-01T10:22:51.537Z,15.6
2018-11-01T10:27:49.781Z,15.6
2018-11-01T10:32:47.686Z,15.6
2018-11-01T10:37:45.213Z,15.7
2018-11-01T10:42:43.301Z,15.7
2018-11-01T10:47:40.880Z,15.8
2018-11-01T10:52:38.199Z,15.8
2018-11-01T10:57:35.349Z,15.9
2018-11-01T11:02:33.493Z,15.9
2018-11-01T11:07:31.749Z,16
2018-11-01T11:12:29.740Z,16
2018-11-01T11:17:27.750Z,16.1
2018-11-01T11:22:26.023Z,16.1
2018-11-01T11:27:23.208Z,16.2
2018-11-01T11:32:21.285Z,16.2
2018-11-01T11:37:19.328Z,16.3
2018-11-01T11:42:17.044Z,16.3
2018-11-01T11:47:14.692Z,15.9
2018-11-01T11:52:12.972Z,16.4
2018-11-01T11:57:10.762Z,16.5
2018-11-01T12:02:08.752Z,16.6
2018-11-01T12:07:06.626Z,16.6
2018-11-01T12:12:04.439Z,16.6
2018-11-01T12:17:02.355Z,16.7
2018-11-01T12:21:59.796Z,16.8
2018-11-01T12:26:58.055Z,16.8
2018-11-01T12:31:55.954Z,16.9
2018-11-01T12:36:53.803Z,16.9
2018-11-01T12:41:51.639Z,17
2018-11-01T12:46:49.428Z,17
2018-11-01T12:51:47.193Z,17.1
2018-11-01T12:56:45.487Z,17.1
2018-11-01T13:01:43.683Z,17.2
2018-11-01T13:06:41.359Z,17.2
2018-11-01T13:11:39.353Z,17.3
2018-11-01T13:16:36.501Z,17.3
2018-11-01T13:21:34.659Z,17.4
2018-11-01T13:26:32.849Z,17.4
2018-11-01T13:31:30.507Z,17.5
2018-11-01T13:36:28.669Z,17.5
2018-11-01T13:41:26.685Z,17.5
2018-11-01T13:46:24.549Z,17.6
2018-11-01T13:51:22.568Z,17.6
2018-11-01T13:56:20.481Z,17.6
2018-11-01T14:01:18.945Z,17.6
2018-11-01T14:06:17.197Z,17.7
2018-11-01T14:11:15.056Z,17.7
2018-11-01T14:16:12.385Z,17.8
2018-11-01T14:21:10.055Z,17.8
2018-11-01T14:26:08.356Z,17.8
2018-11-01T14:31:06.373Z,17.9
2018-11-01T14:36:04.737Z,17.9
2018-11-01T14:41:02.837Z,17.9
2018-11-01T14:46:01.108Z,17.9
2018-11-01T14:50:58.779Z,18
2018-11-01T14:55:58.931Z,18
2018-11-01T15:00:59.414Z,18
2018-11-01T15:05:57.488Z,18
2018-11-01T15:10:54.733Z,18
2018-11-01T15:15:52.435Z,18.1
2018-11-01T15:20:50.133Z,18.1
2018-11-01T15:25:48.004Z,18.1
2018-11-01T15:30:46.165Z,18.1
2018-11-01T15:35:44.256Z,18.1
2018-11-01T15:40:42.154Z,18.2
2018-11-01T15:45:39.763Z,18.2
2018-11-01T15:50:37.552Z,18.2
2018-11-01T15:55:35.751Z,18.2
2018-11-01T16:00:33.694Z,18.2
2018-11-01T16:05:31.379Z,18.2
2018-11-01T16:10:29.639Z,18.2
2018-11-01T16:15:27.215Z,18.2
2018-11-01T16:20:25.124Z,18.3
2018-11-01T16:25:23.143Z,18.3
2018-11-01T16:30:20.948Z,18.3
2018-11-01T16:35:18.686Z,18.3
2018-11-01T16:40:16.460Z,18.3
2018-11-01T16:45:14.090Z,18.3
2018-11-01T16:50:11.585Z,18.3
2018-11-01T16:55:09.437Z,18.3
2018-11-01T17:00:07.114Z,18.3
2018-11-01T17:05:05.468Z,18.3
2018-11-01T17:10:03.283Z,18.3
2018-11-01T17:15:01.566Z,18.3
2018-11-01T17:19:59.829Z,18.3
2018-11-01T17:24:57.587Z,18.3
2018-11-01T17:29:55.626Z,18.3
2018-11-01T17:34:53.195Z,18.3
2018-11-01T17:39:51.206Z,18.3
2018-11-01T17:44:49.113Z,18.3
2018-11-01T17:49:47.371Z,18.3
2018-11-01T17:54:45.148Z,18.3
2018-11-01T17:59:43.521Z,18.3
2018-11-01T18:04:41.354Z,18.3
2018-11-01T18:09:39.422Z,18.3
2018-11-01T18:14:37.281Z,18.3
2018-11-01T18:19:35.051Z,18.3
2018-11-01T18:24:32.748Z,18.3
2018-11-01T18:29:30.906Z,18.3
2018-11-01T18:34:29.075Z,18.3
2018-11-01T18:39:27.593Z,18.3
2018-11-01T18:44:25.919Z,17.9
2018-11-01T18:49:23.945Z,18
2018-11-01T18:54:21.431Z,18.3
2018-11-01T18:59:19.411Z,18.3
2018-11-01T19:04:17.626Z,18.3
2018-11-01T19:09:15.765Z,18.3
2018-11-01T19:14:13.931Z,18.3
2018-11-01T19:19:11.976Z,18.3
2018-11-01T19:24:09.821Z,18.3
2018-11-01T19:29:08.039Z,18.3
2018-11-01T19:34:06.132Z,18.3
2018-11-01T19:39:04.491Z,18.3
2018-11-01T19:44:02.553Z,18.2
2018-11-01T19:48:59.841Z,18.2
2018-11-01T19:53:57.573Z,18.2
2018-11-01T19:58:55.379Z,18.2
2018-11-01T20:03:52.460Z,18.2
2018-11-01T20:08:50.123Z,18.2
2018-11-01T20:13:47.817Z,18.2
2018-11-01T20:18:46.023Z,18.2
2018-11-01T20:23:44.096Z,18.2
2018-11-01T20:28:42.245Z,18.2
2018-11-01T20:33:40.488Z,18.1
2018-11-01T20:38:38.840Z,18.1
2018-11-01T20:43:36.469Z,18.1
2018-11-01T20:48:34.099Z,18.1
2018-11-01T20:53:32.422Z,18.1
2018-11-01T20:58:30.769Z,18.1
2018-11-01T21:03:28.444Z,18.1
2018-11-01T21:08:26.382Z,18.1
2018-11-01T21:13:24.387Z,18.1
2018-11-01T21:18:22.070Z,18.1
2018-11-01T21:23:20.179Z,18.1
2018-11-01T21:28:17.758Z,18
2018-11-01T21:33:15.349Z,18
2018-11-01T21:38:13.045Z,18
2018-11-01T21:43:11.216Z,18
2018-11-01T21:48:09.466Z,18
2018-11-01T21:53:07.558Z,18
2018-11-01T21:58:05.740Z,18
2018-11-01T22:03:03.218Z,18
2018-11-01T22:08:00.698Z,18
2018-11-01T22:12:58.217Z,18
2018-11-01T22:17:56.222Z,17.9
2018-11-01T22:22:54.275Z,17.9
2018-11-01T22:27:51.924Z,17.9
2018-11-01T22:32:50.093Z,17.9
2018-11-01T22:37:47.537Z,17.9
2018-11-01T22:42:45.764Z,17.9
2018-11-01T22:47:43.344Z,17.8
2018-11-01T22:52:41.036Z,17.8
2018-11-01T22:57:39.453Z,17.8
2018-11-01T23:02:37.027Z,17.8
2018-11-01T23:07:34.801Z,17.8
2018-11-01T23:12:32.990Z,17.8
2018-11-01T23:17:30.985Z,17.8
2018-11-01T23:22:28.006Z,17.8
2018-11-01T23:27:26.213Z,17.7
2018-11-01T23:32:24.340Z,17.7
2018-11-01T23:37:21.949Z,17.7
2018-11-01T23:42:19.613Z,17.7
2018-11-01T23:47:17.173Z,17.7
2018-11-01T23:52:15.418Z,17.7
2018-11-01T23:57:13.522Z,17.6
